KACK

Nantucket Memorial Airport

Nantucket, Massachusetts, USA
METAR KACK 242353Z 14007KT 10SM CLR 07/07 A3032 RMK AO2 SLP268 T00720067 10128 20072 55012
Observed Flight Rules
Apr-24 @ 23:53 UTC (39 minutes ago) Visual Flight Rules
Wind Visibility Clouds
140° at 7 knots 10 miles
  • Clear skies
Temperatures Readings
Current 7°C / 45°F
Dewpoint 7°C / 45°F
Humidity 100%
Altimeter 30.32" Hg
Pressure 1026.8 hPa
Elevation 16
METAR KACK 242353Z 14007KT 10SM CLR 07/07 A3032 RMK AO2 SLP268 T00720067 10128 20072 55012
Observed Flight Rules
Apr-24 @ 23:53 UTC
(39 minutes ago)
VFR
Wind Visibility
140° at 7 knots 10 miles
Clouds
  • Clear skies
Temperature Dewpoint
7°C / 45°F 7°C / 45°F
Humidity Altimeter Pressure
100% 30.32" Hg 1026.8 hPa